Time;durP1;ratioP1;P1;durP2;ratioP2;P2;SDS_P1;SDS_P2;PMS_P1;PMS_P2;Temp;Humidity;BMP_temperature;BMP_pressure;BME280_temperature;BME280_humidity;BME280_pressure;Samples;Min_cycle;Max_cycle;Signal;HPM_P1;HPM_P2
2022/10/06 00:01:03;;;;;;;4.63;3.30;;;;;;;;;;4994509;28;20179;-78
2022/10/06 00:03:29;;;;;;;4.33;3.00;;;;;;;;;;5011523;28;20234;-78
2022/10/06 00:05:59;;;;;;;4.43;3.07;;;;;;;;;;4994966;28;20565;-78
2022/10/06 00:08:25;;;;;;;4.73;3.10;;;;;;;;;;4995548;28;20176;-78
2022/10/06 00:10:54;;;;;;;3.47;3.17;;;;;;;;;;5011287;28;20195;-78
2022/10/06 00:13:20;;;;;;;3.47;2.93;;;;;;;;;;4994319;28;20226;-78
2022/10/06 00:15:46;;;;;;;3.30;3.00;;;;;;;;;;4994319;28;20208;-78
2022/10/06 00:18:12;;;;;;;5.60;3.17;;;;;;;;;;4994829;28;20543;-77
2022/10/06 00:20:38;;;;;;;3.70;3.00;;;;;;;;;;5010623;28;20267;-78
2022/10/06 00:23:04;;;;;;;5.80;3.17;;;;;;;;;;5010472;28;20203;-78
2022/10/06 00:25:30;;;;;;;3.13;2.83;;;;;;;;;;5010854;28;20194;-77
2022/10/06 00:27:56;;;;;;;3.47;2.60;;;;;;;;;;4994784;28;20195;-78
2022/10/06 00:30:25;;;;;;;3.30;3.00;;;;;;;;;;4994248;28;20179;-78
2022/10/06 00:33:01;;;;;;;3.37;2.90;;;;;;;;;;4994013;28;20200;-78
2022/10/06 00:35:31;;;;;;;3.80;3.07;;;;;;;;;;5010433;28;20175;-77
2022/10/06 00:37:57;;;;;;;3.63;2.97;;;;;;;;;;4994325;28;20176;-77
2022/10/06 00:40:23;;;;;;;4.37;3.17;;;;;;;;;;5010440;28;20172;-78
2022/10/06 00:42:52;;;;;;;4.20;2.90;;;;;;;;;;5009886;28;20282;-78
2022/10/06 00:45:20;;;;;;;4.60;3.17;;;;;;;;;;5010023;28;20231;-78
2022/10/06 00:47:46;;;;;;;3.03;2.73;;;;;;;;;;5010230;28;20204;-78
2022/10/06 00:50:13;;;;;;;3.37;3.00;;;;;;;;;;4993924;28;20180;-77
2022/10/06 00:52:40;;;;;;;4.30;3.30;;;;;;;;;;4993648;28;20286;-78
2022/10/06 00:55:09;;;;;;;3.80;3.00;;;;;;;;;;5010094;28;20182;-78
2022/10/06 00:57:39;;;;;;;3.60;2.93;;;;;;;;;;5010089;28;20218;-78
2022/10/06 01:00:06;;;;;;;3.70;3.10;;;;;;;;;;4993823;28;20184;-78
2022/10/06 01:02:39;;;;;;;3.60;3.10;;;;;;;;;;5009860;28;20594;-77
2022/10/06 01:05:06;;;;;;;4.27;3.40;;;;;;;;;;5010102;28;20208;-77
2022/10/06 01:07:32;;;;;;;3.30;3.00;;;;;;;;;;5010236;28;20179;-78
2022/10/06 01:09:58;;;;;;;5.33;2.90;;;;;;;;;;4993548;28;20674;-78
2022/10/06 01:12:27;;;;;;;3.60;3.30;;;;;;;;;;5009590;28;20221;-77
2022/10/06 01:14:53;;;;;;;4.90;3.20;;;;;;;;;;4994551;28;20263;-77
2022/10/06 01:17:21;;;;;;;4.00;3.60;;;;;;;;;;4993328;28;20253;-77
2022/10/06 01:19:47;;;;;;;5.47;3.40;;;;;;;;;;5009000;28;20180;-78
2022/10/06 01:22:14;;;;;;;4.37;3.50;;;;;;;;;;5009659;28;20207;-77
2022/10/06 01:24:40;;;;;;;5.23;3.60;;;;;;;;;;4993229;28;20183;-77
2022/10/06 01:27:08;;;;;;;4.10;3.20;;;;;;;;;;4993812;28;20280;-77
2022/10/06 01:29:35;;;;;;;3.83;3.43;;;;;;;;;;4993324;28;20183;-78
2022/10/06 01:32:01;;;;;;;4.23;3.37;;;;;;;;;;5009204;28;20199;-77
2022/10/06 01:34:27;;;;;;;5.07;3.00;;;;;;;;;;5009325;28;20218;-78
2022/10/06 01:36:53;;;;;;;3.97;3.20;;;;;;;;;;5012869;28;20207;-77
2022/10/06 01:39:19;;;;;;;5.33;3.33;;;;;;;;;;4995769;28;20179;-77
2022/10/06 01:41:46;;;;;;;3.73;3.30;;;;;;;;;;4994306;28;20298;-78
2022/10/06 01:44:13;;;;;;;5.73;3.40;;;;;;;;;;4994705;28;20194;-76
2022/10/06 01:46:39;;;;;;;4.63;3.30;;;;;;;;;;5010521;28;20171;-76
2022/10/06 01:49:05;;;;;;;4.60;3.40;;;;;;;;;;5010846;28;20270;-77
2022/10/06 01:51:31;;;;;;;6.60;3.80;;;;;;;;;;5010319;28;20231;-77
2022/10/06 01:53:57;;;;;;;4.60;3.60;;;;;;;;;;5010352;28;20271;-76
2022/10/06 01:56:23;;;;;;;5.27;3.73;;;;;;;;;;4993687;28;20247;-78
2022/10/06 01:58:49;;;;;;;6.27;3.90;;;;;;;;;;4994311;28;20275;-77
2022/10/06 02:01:15;;;;;;;3.93;3.57;;;;;;;;;;4993712;28;20215;-78
2022/10/06 02:03:41;;;;;;;6.43;3.87;;;;;;;;;;4993722;28;20183;-78
2022/10/06 02:06:08;;;;;;;4.63;3.70;;;;;;;;;;5010402;28;20176;-78
2022/10/06 02:08:34;;;;;;;5.77;4.03;;;;;;;;;;4994280;28;20270;-77
2022/10/06 02:11:10;;;;;;;3.93;3.60;;;;;;;;;;5010002;28;20263;-76
2022/10/06 02:13:37;;;;;;;4.43;4.03;;;;;;;;;;5010132;28;20191;-77
2022/10/06 02:16:05;;;;;;;5.03;3.93;;;;;;;;;;4993632;28;20258;-77
2022/10/06 02:18:32;;;;;;;5.77;3.63;;;;;;;;;;5010001;28;20765;-77
2022/10/06 02:20:58;;;;;;;5.23;4.03;;;;;;;;;;5010600;28;20183;-77
2022/10/06 02:23:24;;;;;;;4.40;3.47;;;;;;;;;;5010798;28;20219;-77
2022/10/06 02:25:57;;;;;;;5.00;3.70;;;;;;;;;;4993325;28;20190;-78
2022/10/06 02:28:23;;;;;;;6.00;3.57;;;;;;;;;;5010184;28;20257;-77
2022/10/06 02:30:49;;;;;;;6.80;3.37;;;;;;;;;;4994909;28;20593;-77
2022/10/06 02:33:15;;;;;;;4.87;3.57;;;;;;;;;;4997090;28;20203;-77
2022/10/06 02:35:42;;;;;;;3.97;3.30;;;;;;;;;;4997547;28;20218;-76
2022/10/06 02:38:09;;;;;;;3.60;3.30;;;;;;;;;;5013511;28;20186;-77
2022/10/06 02:40:35;;;;;;;5.63;3.57;;;;;;;;;;5013246;28;20199;-77
2022/10/06 02:43:01;;;;;;;6.27;3.40;;;;;;;;;;4996640;28;20208;-77
2022/10/06 02:45:27;;;;;;;4.57;3.60;;;;;;;;;;4996522;28;20215;-77
2022/10/06 02:47:53;;;;;;;4.40;3.20;;;;;;;;;;4996590;28;20179;-77
2022/10/06 02:50:20;;;;;;;4.00;3.00;;;;;;;;;;4996758;28;20175;-77
2022/10/06 02:52:46;;;;;;;4.20;2.40;;;;;;;;;;5012489;28;20191;-76
2022/10/06 02:55:12;;;;;;;2.47;2.20;;;;;;;;;;5012610;28;20637;-77
2022/10/06 02:57:38;;;;;;;2.50;1.60;;;;;;;;;;4996205;28;20579;-77
2022/10/06 03:00:07;;;;;;;2.90;1.90;;;;;;;;;;4996166;28;20176;-76
2022/10/06 03:02:34;;;;;;;2.77;2.00;;;;;;;;;;4995916;28;20199;-77
2022/10/06 03:05:00;;;;;;;3.07;1.60;;;;;;;;;;5012456;28;20642;-76
2022/10/06 03:07:26;;;;;;;2.67;1.50;;;;;;;;;;4995839;28;20278;-77
2022/10/06 03:09:52;;;;;;;2.30;1.47;;;;;;;;;;4995893;28;20184;-77
2022/10/06 03:12:18;;;;;;;3.53;1.47;;;;;;;;;;5011849;28;20223;-76
2022/10/06 03:14:44;;;;;;;1.53;1.27;;;;;;;;;;4995849;28;20242;-77
2022/10/06 03:17:10;;;;;;;1.70;1.10;;;;;;;;;;5011629;28;20617;-76
2022/10/06 03:19:36;;;;;;;1.83;1.10;;;;;;;;;;5012045;28;20630;-76
2022/10/06 03:22:03;;;;;;;1.20;1.10;;;;;;;;;;5011851;28;20195;-77
2022/10/06 03:24:29;;;;;;;1.70;1.10;;;;;;;;;;5012081;28;20175;-76
2022/10/06 03:26:55;;;;;;;1.10;1.00;;;;;;;;;;4995706;28;20210;-77
2022/10/06 03:29:21;;;;;;;1.63;1.10;;;;;;;;;;5012032;28;20187;-77
2022/10/06 03:31:47;;;;;;;1.80;1.00;;;;;;;;;;4995379;28;20740;-76
2022/10/06 03:34:14;;;;;;;0.80;0.80;;;;;;;;;;4996490;28;20669;-76
2022/10/06 03:36:40;;;;;;;1.37;1.00;;;;;;;;;;4995309;28;20266;-77
2022/10/06 03:39:06;;;;;;;1.13;1.03;;;;;;;;;;4996439;28;20171;-77
2022/10/06 03:41:33;;;;;;;1.63;1.07;;;;;;;;;;5012945;28;20296;-77
2022/10/06 03:44:00;;;;;;;1.70;1.20;;;;;;;;;;4994501;28;20326;-78
2022/10/06 03:46:27;;;;;;;1.60;1.17;;;;;;;;;;5011338;28;20204;-77
2022/10/06 03:48:54;;;;;;;2.10;1.10;;;;;;;;;;5011294;28;20172;-78
2022/10/06 03:51:21;;;;;;;4.33;1.20;;;;;;;;;;4994663;28;20188;-78
2022/10/06 03:53:49;;;;;;;3.37;1.10;;;;;;;;;;5011055;28;20184;-78
2022/10/06 03:56:20;;;;;;;3.50;1.20;;;;;;;;;;5011001;28;20679;-78
2022/10/06 03:58:48;;;;;;;2.87;1.20;;;;;;;;;;5011026;28;20175;-78
2022/10/06 04:01:14;;;;;;;2.03;1.20;;;;;;;;;;4994684;28;20262;-78
2022/10/06 04:03:41;;;;;;;1.47;1.20;;;;;;;;;;5010908;28;20214;-78
2022/10/06 04:06:10;;;;;;;2.60;1.03;;;;;;;;;;5010945;28;20254;-77
2022/10/06 04:08:36;;;;;;;1.20;1.10;;;;;;;;;;5010961;28;20670;-77
2022/10/06 04:11:06;;;;;;;2.07;1.00;;;;;;;;;;4994099;28;20223;-78
2022/10/06 04:13:32;;;;;;;1.30;1.00;;;;;;;;;;4995449;28;20670;-79
2022/10/06 04:15:58;;;;;;;1.10;1.00;;;;;;;;;;5010561;28;20203;-78
2022/10/06 04:18:24;;;;;;;1.97;1.00;;;;;;;;;;5010784;28;20175;-78
2022/10/06 04:20:50;;;;;;;1.67;0.90;;;;;;;;;;4994400;28;20227;-78
2022/10/06 04:23:16;;;;;;;0.70;0.70;;;;;;;;;;4995353;28;20231;-78
2022/10/06 04:25:42;;;;;;;1.57;1.00;;;;;;;;;;4994155;28;20211;-78
2022/10/06 04:28:08;;;;;;;1.67;0.87;;;;;;;;;;5010354;28;20180;-77
2022/10/06 04:30:34;;;;;;;0.73;0.73;;;;;;;;;;4993573;28;20179;-76
2022/10/06 04:33:00;;;;;;;0.80;0.70;;;;;;;;;;4992990;28;20279;-76
2022/10/06 04:35:26;;;;;;;0.77;0.70;;;;;;;;;;4993230;28;20191;-77
2022/10/06 04:37:54;;;;;;;0.90;0.80;;;;;;;;;;4993116;28;20183;-77
2022/10/06 04:40:21;;;;;;;0.80;0.80;;;;;;;;;;4993336;28;20207;-77
2022/10/06 04:42:47;;;;;;;0.93;0.80;;;;;;;;;;4993253;28;20199;-77
2022/10/06 04:45:13;;;;;;;1.20;0.80;;;;;;;;;;4992924;28;20180;-76
2022/10/06 04:47:39;;;;;;;0.80;0.80;;;;;;;;;;4993030;28;20187;-77
2022/10/06 04:50:05;;;;;;;2.70;0.77;;;;;;;;;;4993030;28;20681;-77
2022/10/06 04:52:31;;;;;;;0.80;0.80;;;;;;;;;;4992704;28;20206;-77
2022/10/06 04:54:57;;;;;;;1.70;0.67;;;;;;;;;;4991856;28;20279;-77
2022/10/06 04:57:23;;;;;;;1.80;0.90;;;;;;;;;;4993512;28;20211;-77
2022/10/06 05:02:35;;;;;;;1.57;0.80;;;;;;;;;;4993384;28;20247;-77
2022/10/06 05:05:01;;;;;;;1.93;1.00;;;;;;;;;;4993119;28;20650;-77
2022/10/06 05:07:27;;;;;;;1.70;0.90;;;;;;;;;;4993063;28;20214;-77
2022/10/06 05:09:53;;;;;;;0.93;0.90;;;;;;;;;;4992704;28;20176;-78
2022/10/06 05:12:19;;;;;;;1.20;0.90;;;;;;;;;;4992860;28;20752;-77
2022/10/06 05:14:45;;;;;;;1.67;1.10;;;;;;;;;;4992564;28;20274;-79
2022/10/06 05:17:11;;;;;;;1.13;0.90;;;;;;;;;;4992319;28;20250;-77
2022/10/06 05:19:37;;;;;;;1.10;0.90;;;;;;;;;;4992530;28;20223;-77
2022/10/06 05:22:03;;;;;;;1.57;0.90;;;;;;;;;;4992045;28;20206;-77
2022/10/06 05:24:29;;;;;;;1.20;1.10;;;;;;;;;;4992217;28;20635;-77
2022/10/06 05:26:55;;;;;;;2.07;1.30;;;;;;;;;;4992284;28;20176;-77
2022/10/06 05:29:21;;;;;;;1.37;1.10;;;;;;;;;;4992192;28;20180;-76
2022/10/06 05:31:47;;;;;;;2.03;1.20;;;;;;;;;;4991920;28;20200;-77
2022/10/06 05:34:13;;;;;;;1.43;1.10;;;;;;;;;;4993277;28;20176;-77
2022/10/06 05:36:39;;;;;;;2.23;1.10;;;;;;;;;;4993666;28;20737;-77
2022/10/06 05:39:05;;;;;;;2.60;1.17;;;;;;;;;;5008442;28;20215;-76
2022/10/06 05:41:32;;;;;;;2.27;1.23;;;;;;;;;;4991936;28;20249;-77
2022/10/06 05:43:58;;;;;;;2.97;1.20;;;;;;;;;;5008410;28;20180;-77
2022/10/06 05:46:27;;;;;;;2.10;1.17;;;;;;;;;;5008151;28;20323;-77
2022/10/06 05:48:57;;;;;;;2.83;1.57;;;;;;;;;;5008186;28;20541;-77
2022/10/06 05:51:25;;;;;;;3.77;1.57;;;;;;;;;;4991858;28;20258;-77
2022/10/06 05:53:51;;;;;;;3.60;1.63;;;;;;;;;;5008232;28;20211;-76
2022/10/06 05:56:19;;;;;;;2.40;1.70;;;;;;;;;;4991698;28;20297;-76
2022/10/06 05:58:46;;;;;;;4.27;1.77;;;;;;;;;;4991769;28;20184;-77
2022/10/06 06:01:13;;;;;;;4.97;1.80;;;;;;;;;;4992643;28;20172;-77
2022/10/06 06:03:40;;;;;;;1.93;1.53;;;;;;;;;;4991658;28;20180;-77
2022/10/06 06:06:16;;;;;;;2.57;1.70;;;;;;;;;;5007850;28;20184;-77
2022/10/06 06:08:42;;;;;;;2.50;1.83;;;;;;;;;;4991788;28;20679;-77
2022/10/06 06:11:09;;;;;;;3.70;1.97;;;;;;;;;;4991633;28;20234;-77
2022/10/06 06:13:35;;;;;;;2.77;1.80;;;;;;;;;;5007864;28;20191;-77
2022/10/06 06:16:03;;;;;;;3.60;2.00;;;;;;;;;;5007735;28;20234;-77
2022/10/06 06:18:29;;;;;;;2.67;1.87;;;;;;;;;;5007930;28;20179;-77
2022/10/06 06:20:59;;;;;;;5.30;2.10;;;;;;;;;;5008143;28;20211;-77
2022/10/06 06:23:30;;;;;;;4.60;2.23;;;;;;;;;;5007777;28;20195;-77
2022/10/06 06:25:56;;;;;;;3.90;2.00;;;;;;;;;;5007802;28;20199;-77
2022/10/06 06:28:22;;;;;;;3.07;2.00;;;;;;;;;;4991457;28;20603;-77
2022/10/06 06:30:49;;;;;;;3.43;2.27;;;;;;;;;;4991228;28;20214;-77
2022/10/06 06:33:15;;;;;;;4.30;2.00;;;;;;;;;;4991309;28;20234;-77
2022/10/06 06:35:42;;;;;;;5.20;2.10;;;;;;;;;;4991373;28;20191;-77
2022/10/06 06:38:10;;;;;;;3.53;2.03;;;;;;;;;;4991574;28;20231;-77
2022/10/06 06:40:40;;;;;;;2.30;1.90;;;;;;;;;;4991604;28;20187;-77
2022/10/06 06:43:06;;;;;;;4.03;2.20;;;;;;;;;;5007369;28;20283;-77
2022/10/06 06:45:32;;;;;;;3.87;1.97;;;;;;;;;;4991273;28;20340;-77
2022/10/06 06:47:58;;;;;;;3.73;2.00;;;;;;;;;;4991243;28;20592;-77
2022/10/06 06:50:24;;;;;;;3.67;2.23;;;;;;;;;;4991368;28;20190;-77
2022/10/06 06:52:50;;;;;;;3.27;2.10;;;;;;;;;;4991046;28;20203;-77
2022/10/06 06:55:16;;;;;;;4.27;2.30;;;;;;;;;;5007676;28;20597;-77
2022/10/06 06:57:42;;;;;;;6.63;2.53;;;;;;;;;;4990994;28;20211;-76
2022/10/06 07:00:08;;;;;;;3.70;2.10;;;;;;;;;;5007669;28;20649;-77
2022/10/06 07:02:34;;;;;;;3.63;2.00;;;;;;;;;;4991034;28;20678;-77
2022/10/06 07:05:00;;;;;;;4.90;2.10;;;;;;;;;;4991210;28;20543;-76
2022/10/06 07:07:26;;;;;;;3.20;1.80;;;;;;;;;;5007433;28;20673;-76
2022/10/06 07:09:52;;;;;;;4.00;2.07;;;;;;;;;;4991136;28;20180;-77
2022/10/06 07:12:18;;;;;;;4.97;2.20;;;;;;;;;;4990774;28;20223;-76
2022/10/06 07:25:42;;;;;;;3.50;2.10;;;;;;;;;;4994989;28;20302;-77
2022/10/06 07:28:11;;;;;;;4.93;1.80;;;;;;;;;;4994430;28;20215;-77
2022/10/06 07:30:37;;;;;;;3.53;2.00;;;;;;;;;;5010749;28;20190;-77
2022/10/06 07:33:04;;;;;;;4.03;2.03;;;;;;;;;;5010300;28;20666;-76
2022/10/06 07:35:30;;;;;;;5.97;2.10;;;;;;;;;;4994134;28;20191;-76
2022/10/06 07:38:01;;;;;;;5.10;1.70;;;;;;;;;;5010648;28;20259;-76
2022/10/06 07:40:27;;;;;;;3.77;1.80;;;;;;;;;;5010628;28;20665;-76
2022/10/06 07:42:53;;;;;;;2.63;1.80;;;;;;;;;;5010054;28;20196;-76
2022/10/06 07:45:37;;;;;;;3.93;1.90;;;;;;;;;;4994073;28;20238;-76
2022/10/06 07:48:13;;;;;;;4.43;2.23;;;;;;;;;;5010454;28;20210;-76
2022/10/06 07:50:40;;;;;;;4.70;2.10;;;;;;;;;;4994556;28;20179;-76
2022/10/06 07:53:08;;;;;;;4.23;2.27;;;;;;;;;;5010087;28;20215;-76
2022/10/06 07:55:38;;;;;;;2.30;1.63;;;;;;;;;;4994942;28;20693;-76
2022/10/06 07:58:07;;;;;;;4.67;1.90;;;;;;;;;;4993984;28;20225;-76
2022/10/06 08:00:33;;;;;;;3.53;1.67;;;;;;;;;;4994617;28;20186;-76
2022/10/06 08:02:59;;;;;;;3.70;1.93;;;;;;;;;;4993581;28;20195;-76
2022/10/06 08:05:25;;;;;;;3.17;1.77;;;;;;;;;;5009917;28;20216;-76
2022/10/06 08:07:52;;;;;;;4.23;1.97;;;;;;;;;;5010144;28;20205;-76
2022/10/06 08:10:19;;;;;;;3.30;1.90;;;;;;;;;;5009950;28;20183;-76
2022/10/06 08:12:45;;;;;;;6.73;2.10;;;;;;;;;;4994339;28;20211;-76
2022/10/06 08:15:13;;;;;;;3.63;1.90;;;;;;;;;;4993870;28;20244;-76
2022/10/06 08:17:39;;;;;;;5.60;2.10;;;;;;;;;;4993570;28;20261;-76
2022/10/06 08:20:06;;;;;;;3.43;1.87;;;;;;;;;;5009974;28;20178;-76
2022/10/06 08:22:32;;;;;;;3.13;1.93;;;;;;;;;;4993206;28;20223;-76
2022/10/06 08:24:58;;;;;;;2.97;1.70;;;;;;;;;;4993423;28;20208;-76
2022/10/06 08:27:26;;;;;;;5.20;2.30;;;;;;;;;;5009487;28;20544;-76
2022/10/06 08:29:53;;;;;;;3.10;1.90;;;;;;;;;;5009198;28;20183;-76
2022/10/06 08:32:19;;;;;;;5.93;1.97;;;;;;;;;;4993084;28;20200;-76
2022/10/06 08:34:46;;;;;;;4.03;1.87;;;;;;;;;;5009494;28;20176;-76
2022/10/06 08:37:12;;;;;;;5.20;1.83;;;;;;;;;;5009700;28;20214;-76
2022/10/06 08:39:40;;;;;;;4.27;2.00;;;;;;;;;;4993484;28;20270;-75
2022/10/06 08:42:09;;;;;;;4.13;1.83;;;;;;;;;;4993942;28;20199;-75
2022/10/06 08:44:39;;;;;;;4.93;2.17;;;;;;;;;;4993579;28;20195;-76
2022/10/06 08:47:12;;;;;;;4.83;2.40;;;;;;;;;;5010040;28;20184;-75
2022/10/06 08:49:39;;;;;;;4.53;2.20;;;;;;;;;;5009679;28;20183;-75
2022/10/06 08:52:22;;;;;;;3.83;1.97;;;;;;;;;;5009410;28;20195;-76
2022/10/06 08:55:14;;;;;;;5.90;2.27;;;;;;;;;;5009638;28;20172;-76
2022/10/06 08:57:58;;;;;;;5.20;2.30;;;;;;;;;;5009419;28;20200;-76
2022/10/06 09:00:24;;;;;;;4.17;2.00;;;;;;;;;;5009526;28;20661;-75
2022/10/06 09:02:51;;;;;;;2.93;1.90;;;;;;;;;;4993229;28;20781;-75
2022/10/06 09:05:24;;;;;;;4.07;1.93;;;;;;;;;;4993183;28;20208;-75
2022/10/06 09:07:59;;;;;;;5.13;2.17;;;;;;;;;;4994190;28;20160;-75
2022/10/06 09:10:25;;;;;;;4.77;2.00;;;;;;;;;;5009264;28;20180;-76
2022/10/06 09:12:54;;;;;;;5.07;1.90;;;;;;;;;;5008914;28;20269;-76
2022/10/06 09:15:32;;;;;;;2.80;1.90;;;;;;;;;;5009182;28;20270;-75
2022/10/06 09:18:12;;;;;;;2.60;1.70;;;;;;;;;;4993003;28;20242;-76
2022/10/06 09:20:41;;;;;;;5.53;2.40;;;;;;;;;;5009097;28;20187;-75
2022/10/06 09:23:13;;;;;;;2.53;1.77;;;;;;;;;;4993097;28;20235;-80
2022/10/06 09:25:39;;;;;;;2.00;1.60;;;;;;;;;;5009017;28;20194;-76
2022/10/06 09:28:10;;;;;;;5.67;2.20;;;;;;;;;;4993037;28;20175;-76
2022/10/06 09:30:36;;;;;;;4.97;2.00;;;;;;;;;;5008981;28;20168;-76
2022/10/06 09:33:04;;;;;;;6.27;2.10;;;;;;;;;;5008833;28;20210;-76
2022/10/06 09:35:31;;;;;;;5.87;2.30;;;;;;;;;;5008786;28;20176;-76
2022/10/06 09:38:02;;;;;;;4.57;1.90;;;;;;;;;;5008801;28;20206;-76
2022/10/06 09:40:40;;;;;;;5.40;1.80;;;;;;;;;;5008600;28;20168;-76
2022/10/06 09:43:24;;;;;;;3.60;1.80;;;;;;;;;;4993430;28;20198;-76
2022/10/06 09:45:53;;;;;;;5.70;2.20;;;;;;;;;;5009050;28;20270;-76
2022/10/06 09:48:23;;;;;;;5.17;1.80;;;;;;;;;;4993550;28;20543;-76
2022/10/06 09:51:06;;;;;;;2.47;1.60;;;;;;;;;;5008673;28;20183;-76
2022/10/06 09:53:32;;;;;;;3.83;1.90;;;;;;;;;;5008435;28;20176;-76
2022/10/06 09:55:58;;;;;;;3.10;1.97;;;;;;;;;;5008400;28;20677;-76
2022/10/06 09:58:32;;;;;;;4.17;2.07;;;;;;;;;;5008588;28;20643;-76
2022/10/06 10:01:00;;;;;;;3.77;1.90;;;;;;;;;;5008466;28;20171;-76
2022/10/06 10:03:39;;;;;;;4.13;1.90;;;;;;;;;;5008382;28;20235;-78
2022/10/06 10:06:05;;;;;;;3.63;1.73;;;;;;;;;;5008493;28;20163;-76
2022/10/06 10:08:31;;;;;;;4.07;1.60;;;;;;;;;;4992394;28;20184;-76
2022/10/06 10:14:02;;;;;;;4.20;1.80;;;;;;;;;;4993269;28;20202;-76
2022/10/06 10:16:41;;;;;;;4.30;2.00;;;;;;;;;;5008185;28;20215;-76
2022/10/06 10:19:18;;;;;;;2.93;1.87;;;;;;;;;;5008666;28;20521;-76
2022/10/06 10:21:44;;;;;;;4.10;2.30;;;;;;;;;;5008313;28;20210;-76
2022/10/06 10:24:14;;;;;;;6.77;2.20;;;;;;;;;;5008344;28;20199;-76
2022/10/06 10:26:46;;;;;;;4.33;1.60;;;;;;;;;;4993219;28;20176;-76
2022/10/06 10:29:20;;;;;;;3.40;1.97;;;;;;;;;;5008144;28;20175;-76
2022/10/06 10:31:52;;;;;;;6.30;1.90;;;;;;;;;;5008259;28;20230;-76
2022/10/06 10:34:27;;;;;;;5.50;1.57;;;;;;;;;;5008223;28;20225;-76
2022/10/06 10:37:11;;;;;;;3.60;1.80;;;;;;;;;;5008117;28;20612;-76
2022/10/06 10:39:43;;;;;;;5.67;1.90;;;;;;;;;;5008568;28;20514;-76
2022/10/06 10:42:22;;;;;;;2.60;1.57;;;;;;;;;;5007972;28;20662;-76
2022/10/06 10:44:55;;;;;;;4.33;1.67;;;;;;;;;;5008409;28;20218;-76
2022/10/06 10:47:24;;;;;;;2.23;1.33;;;;;;;;;;5007983;28;20226;-76
2022/10/06 10:50:05;;;;;;;3.57;1.80;;;;;;;;;;5008021;28;20198;-76
2022/10/06 10:52:33;;;;;;;3.53;1.67;;;;;;;;;;5010165;28;20609;-76
2022/10/06 10:55:06;;;;;;;4.17;1.60;;;;;;;;;;4995614;28;20183;-76
2022/10/06 10:57:39;;;;;;;3.63;1.60;;;;;;;;;;4995602;28;20218;-76
2022/10/06 11:00:15;;;;;;;5.30;1.50;;;;;;;;;;5011732;28;20200;-76
2022/10/06 11:02:41;;;;;;;3.83;1.40;;;;;;;;;;5011807;28;20650;-76
2022/10/06 11:05:17;;;;;;;2.77;1.60;;;;;;;;;;4995271;28;20274;-76
2022/10/06 11:07:46;;;;;;;3.67;1.40;;;;;;;;;;5011510;28;20191;-77
2022/10/06 11:10:19;;;;;;;2.37;1.40;;;;;;;;;;5011567;28;20195;-79
2022/10/06 11:12:45;;;;;;;5.00;1.57;;;;;;;;;;5035070;22;20286;-76
2022/10/06 11:15:14;;;;;;;5.13;1.53;;;;;;;;;;4994803;28;20179;-77
2022/10/06 11:17:45;;;;;;;3.43;1.30;;;;;;;;;;4994248;28;20258;-77
2022/10/06 11:20:30;;;;;;;4.83;1.50;;;;;;;;;;4978607;28;20180;-76
2022/10/06 11:23:01;;;;;;;3.20;1.47;;;;;;;;;;4982111;28;20197;-76
2022/10/06 11:25:27;;;;;;;4.13;1.50;;;;;;;;;;4976209;28;20168;-76
2022/10/06 11:27:58;;;;;;;5.03;1.90;;;;;;;;;;4975111;28;20180;-76
2022/10/06 11:30:25;;;;;;;3.10;1.30;;;;;;;;;;4975133;28;20262;-76
2022/10/06 11:33:10;;;;;;;2.83;1.30;;;;;;;;;;4958717;28;20204;-77
2022/10/06 11:35:37;;;;;;;3.00;1.60;;;;;;;;;;4975991;28;20179;-76
2022/10/06 11:38:23;;;;;;;2.10;1.47;;;;;;;;;;4974832;28;20215;-75
2022/10/06 11:40:49;;;;;;;4.40;1.50;;;;;;;;;;4975838;28;20332;-76
2022/10/06 11:43:34;;;;;;;4.03;1.70;;;;;;;;;;4974423;28;20197;-76
2022/10/06 11:46:03;;;;;;;3.23;1.30;;;;;;;;;;4974765;28;20176;-76
2022/10/06 11:48:30;;;;;;;4.23;1.70;;;;;;;;;;4974452;28;20184;-76
2022/10/06 11:51:16;;;;;;;3.53;1.50;;;;;;;;;;4974518;28;20279;-76
2022/10/06 11:53:42;;;;;;;4.17;1.40;;;;;;;;;;4974276;28;20250;-76
2022/10/06 11:56:17;;;;;;;3.27;1.40;;;;;;;;;;4974625;28;20232;-76
2022/10/06 11:58:55;;;;;;;2.80;1.50;;;;;;;;;;4974463;28;20647;-76
2022/10/06 12:01:27;;;;;;;5.67;1.50;;;;;;;;;;4974308;28;20427;-76
2022/10/06 12:04:08;;;;;;;4.23;1.60;;;;;;;;;;4973759;28;20176;-76
2022/10/06 12:06:40;;;;;;;3.40;1.50;;;;;;;;;;4974560;28;20180;-76
2022/10/06 12:09:31;;;;;;;2.40;1.43;;;;;;;;;;4974371;28;20647;-76
2022/10/06 12:12:26;;;;;;;4.23;1.50;;;;;;;;;;4973830;28;20278;-76
2022/10/06 12:15:04;;;;;;;4.67;1.53;;;;;;;;;;4974108;28;20185;-76
2022/10/06 12:17:38;;;;;;;2.63;1.60;;;;;;;;;;4975058;28;20204;-76
2022/10/06 12:20:12;;;;;;;2.07;1.40;;;;;;;;;;4974751;28;20227;-76
2022/10/06 12:22:44;;;;;;;6.73;2.17;;;;;;;;;;4974224;28;20195;-76
2022/10/06 12:25:18;;;;;;;3.67;1.40;;;;;;;;;;4974299;28;20627;-76
2022/10/06 12:27:54;;;;;;;4.60;1.60;;;;;;;;;;4974448;28;20172;-76
2022/10/06 12:30:26;;;;;;;3.37;1.60;;;;;;;;;;4974380;28;20191;-76
2022/10/06 12:32:56;;;;;;;4.07;1.43;;;;;;;;;;4973988;28;20227;-77
2022/10/06 12:35:25;;;;;;;4.00;1.57;;;;;;;;;;4958199;28;20184;-76
2022/10/06 12:37:52;;;;;;;3.87;1.53;;;;;;;;;;4974281;28;20670;-76
2022/10/06 12:40:38;;;;;;;3.87;1.40;;;;;;;;;;4974474;28;20177;-76
2022/10/06 12:43:19;;;;;;;4.47;1.03;;;;;;;;;;4975003;28;20243;-76
2022/10/06 12:46:11;;;;;;;3.90;1.40;;;;;;;;;;4975305;28;20152;-76
2022/10/06 12:48:40;;;;;;;3.13;1.60;;;;;;;;;;4974249;28;20176;-76
2022/10/06 12:51:12;;;;;;;3.83;1.40;;;;;;;;;;4974088;28;20677;-76
2022/10/06 12:54:01;;;;;;;3.17;1.25;;;;;;;;;;4973833;28;20200;-76
2022/10/06 12:56:30;;;;;;;4.43;1.33;;;;;;;;;;4974106;28;20227;-76
2022/10/06 12:58:57;;;;;;;5.07;1.40;;;;;;;;;;4973983;28;20198;-77
2022/10/06 13:01:23;;;;;;;3.60;1.60;;;;;;;;;;4973662;28;20176;-77
2022/10/06 13:03:50;;;;;;;3.67;1.42;;;;;;;;;;4973888;28;20219;-76
2022/10/06 13:06:21;;;;;;;2.67;1.10;;;;;;;;;;4973658;28;20177;-76
2022/10/06 13:09:01;;;;;;;2.90;1.38;;;;;;;;;;4973719;28;20168;-76
2022/10/06 13:11:27;;;;;;;3.63;1.95;;;;;;;;;;4974886;28;20163;-76
2022/10/06 13:13:58;;;;;;;3.70;1.65;;;;;;;;;;4957805;28;20223;-76
2022/10/06 13:19:28;;;;;;;4.07;1.63;;;;;;;;;;4974893;28;20202;-76
2022/10/06 13:21:54;;;;;;;3.55;1.77;;;;;;;;;;4973455;28;20200;-76
2022/10/06 13:24:24;;;;;;;3.35;1.30;;;;;;;;;;4957336;28;20215;-77
2022/10/06 13:26:50;;;;;;;5.07;2.30;;;;;;;;;;4973280;28;20181;-76
2022/10/06 13:29:18;;;;;;;3.60;1.60;;;;;;;;;;4957166;28;20186;-76
2022/10/06 13:32:06;;;;;;;2.65;1.15;;;;;;;;;;4973268;28;20238;-76
2022/10/06 13:34:42;;;;;;;5.80;2.85;;;;;;;;;;4958053;28;20172;-77
2022/10/06 13:37:12;;;;;;;4.97;1.27;;;;;;;;;;4973123;28;20192;-77
2022/10/06 13:39:39;;;;;;;4.55;1.30;;;;;;;;;;4973430;28;20179;-77
2022/10/06 13:42:09;;;;;;;4.13;1.30;;;;;;;;;;4974136;28;20193;-77
2022/10/06 13:44:39;;;;;;;2.78;1.30;;;;;;;;;;4973577;28;20191;-78
2022/10/06 13:47:18;;;;;;;2.80;1.10;;;;;;;;;;4973261;28;20187;-78
2022/10/06 13:50:04;;;;;;;3.05;1.33;;;;;;;;;;4973640;28;20219;-77
2022/10/06 13:52:33;;;;;;;4.15;1.27;;;;;;;;;;4972883;28;20192;-77
2022/10/06 13:54:59;;;;;;;2.20;1.33;;;;;;;;;;4972897;28;20180;-77
2022/10/06 13:57:32;;;;;;;4.05;1.25;;;;;;;;;;4973992;28;20200;-77
2022/10/06 14:00:19;;;;;;;4.18;1.42;;;;;;;;;;4973029;28;20179;-77
2022/10/06 14:02:46;;;;;;;3.47;1.10;;;;;;;;;;4972850;28;20198;-76
2022/10/06 14:05:31;;;;;;;4.50;1.20;;;;;;;;;;4972962;28;20211;-77
2022/10/06 14:07:59;;;;;;;3.17;1.30;;;;;;;;;;4972768;28;20612;-76
2022/10/06 14:10:29;;;;;;;4.63;1.42;;;;;;;;;;4972961;28;20199;-77
2022/10/06 14:12:56;;;;;;;3.40;1.17;;;;;;;;;;4956763;28;20242;-77
2022/10/06 14:15:24;;;;;;;4.30;1.33;;;;;;;;;;4972560;28;20187;-77
2022/10/06 14:17:55;;;;;;;4.05;1.40;;;;;;;;;;4972496;28;20196;-76
2022/10/06 14:20:37;;;;;;;3.35;1.20;;;;;;;;;;4974056;28;20192;-77
2022/10/06 14:23:22;;;;;;;3.58;1.05;;;;;;;;;;4972740;28;20568;-77
2022/10/06 14:25:49;;;;;;;1.45;1.00;;;;;;;;;;4972716;28;20175;-77
2022/10/06 14:28:15;;;;;;;1.55;1.10;;;;;;;;;;4977464;28;20540;-77
2022/10/06 14:30:40;;;;;;;2.17;0.98;;;;;;;;;;4976418;28;20172;-76
2022/10/06 14:33:07;;;;;;;2.70;1.30;;;;;;;;;;4976334;28;20196;-76
2022/10/06 14:35:33;;;;;;;3.33;1.40;;;;;;;;;;4976894;28;20176;-76
2022/10/06 14:38:00;;;;;;;3.38;1.10;;;;;;;;;;4960522;28;20231;-76
2022/10/06 14:40:26;;;;;;;3.50;1.20;;;;;;;;;;4976294;28;20172;-77
2022/10/06 14:42:52;;;;;;;3.65;1.10;;;;;;;;;;4960353;28;20223;-75
2022/10/06 14:45:18;;;;;;;3.95;1.30;;;;;;;;;;4961527;28;20268;-76
2022/10/06 14:47:45;;;;;;;3.50;1.08;;;;;;;;;;4976260;28;20603;-79
2022/10/06 14:50:11;;;;;;;3.20;1.13;;;;;;;;;;4961031;28;20710;-76
2022/10/06 14:52:38;;;;;;;4.57;1.20;;;;;;;;;;4976159;28;20196;-75
2022/10/06 14:55:06;;;;;;;2.67;1.00;;;;;;;;;;4976355;28;20532;-75
2022/10/06 14:57:34;;;;;;;3.60;1.30;;;;;;;;;;4976461;28;20204;-78
2022/10/06 15:00:01;;;;;;;3.08;1.30;;;;;;;;;;4976173;28;20230;-76
2022/10/06 15:02:27;;;;;;;2.85;1.20;;;;;;;;;;4975661;28;20280;-76
2022/10/06 15:04:52;;;;;;;2.08;1.00;;;;;;;;;;4976171;28;20312;-76
2022/10/06 15:10:23;;;;;;;2.67;1.10;;;;;;;;;;4944795;29;20599;-79
2022/10/06 15:12:52;;;;;;;3.50;1.30;;;;;;;;;;4923518;29;20217;-77
2022/10/06 15:18:26;;;;;;;3.13;1.38;;;;;;;;;;4977198;28;20687;-76
2022/10/06 15:20:52;;;;;;;2.40;1.10;;;;;;;;;;4959654;28;20553;-76